Time;durP1;ratioP1;P1;durP2;ratioP2;P2;SDS_P1;SDS_P2;PMS_P1;PMS_P2;Temp;Humidity;BMP_temperature;BMP_pressure;BME280_temperature;BME280_humidity;BME280_pressure;Samples;Min_cycle;Max_cycle;Signal;HPM_P1;HPM_P2
2023/11/19 00:00:37;;;;;;;;;;;;;;;7.57;76.95;97955.97;5008777;28;19933;-75
2023/11/19 00:03:26;;;;;;;;;;;;;;;7.60;77.27;97942.66;4989261;28;19976;-76
2023/11/19 00:06:14;;;;;;;;;;;;;;;7.69;76.63;97940.09;5008449;28;19925;-74
2023/11/19 00:09:03;;;;;;;;;;;;;;;7.50;77.16;97923.06;5008869;28;20020;-74
2023/11/19 00:11:53;;;;;;;;;;;;;;;7.61;76.99;97913.72;5006422;28;19925;-74
2023/11/19 00:14:44;;;;;;;;;;;;;;;7.62;77.37;97915.34;5008600;28;19929;-74
2023/11/19 00:17:32;;;;;;;;;;;;;;;7.56;77.71;97911.91;5007222;28;20411;-74
2023/11/19 00:20:21;;;;;;;;;;;;;;;7.46;77.93;97913.94;5010212;28;19964;-74
2023/11/19 00:23:09;;;;;;;;;;;;;;;7.60;77.05;97926.41;5003353;28;19937;-74
2023/11/19 00:25:57;;;;;;;;;;;;;;;7.59;77.15;97924.03;5010528;28;20843;-74
2023/11/19 00:28:47;;;;;;;;;;;;;;;7.44;77.68;97910.69;5007631;28;19925;-75
2023/11/19 00:31:36;;;;;;;;;;;;;;;7.72;76.56;97917.88;5004547;28;19930;-74
2023/11/19 00:34:24;;;;;;;;;;;;;;;7.73;76.56;97902.47;5008615;28;20303;-75
2023/11/19 00:37:15;;;;;;;;;;;;;;;7.59;76.86;97896.97;4993955;28;19926;-74
2023/11/19 00:40:05;;;;;;;;;;;;;;;7.64;77.06;97888.78;5007123;28;19926;-75
2023/11/19 00:42:53;;;;;;;;;;;;;;;7.69;76.62;97890.63;5007436;28;19925;-75
2023/11/19 00:45:43;;;;;;;;;;;;;;;7.57;77.74;97888.38;5008975;28;19952;-75
2023/11/19 00:48:31;;;;;;;;;;;;;;;7.51;77.52;97874.13;4994536;28;19925;-75
2023/11/19 00:51:20;;;;;;;;;;;;;;;7.47;78.16;97873.09;5007732;28;19936;-75
2023/11/19 00:54:08;;;;;;;;;;;;;;;7.66;77.80;97861.47;5007292;28;19925;-74
2023/11/19 00:56:56;;;;;;;;;;;;;;;7.50;78.06;97861.69;5007990;28;19987;-74
2023/11/19 00:59:44;;;;;;;;;;;;;;;7.49;78.40;97853.88;4994008;28;19930;-74
2023/11/19 01:02:34;;;;;;;;;;;;;;;7.57;78.67;97856.72;5006124;28;19934;-75
2023/11/19 01:05:22;;;;;;;;;;;;;;;7.55;78.28;97847.28;4997507;28;19932;-75
2023/11/19 01:08:11;;;;;;;;;;;;;;;7.57;78.24;97848.63;4994235;28;19929;-75
2023/11/19 01:11:00;;;;;;;;;;;;;;;7.65;77.76;97857.97;4998949;28;20466;-75
2023/11/19 01:13:48;;;;;;;;;;;;;;;7.33;79.44;97867.59;5011652;28;19933;-75
2023/11/19 01:16:36;;;;;;;;;;;;;;;7.49;79.12;97870.09;5009910;28;19933;-75
2023/11/19 01:19:28;;;;;;;;;;;;;;;7.55;78.77;97863.50;5008581;28;19933;-74
2023/11/19 01:22:16;;;;;;;;;;;;;;;7.56;78.77;97873.22;5009044;28;19971;-74
2023/11/19 01:25:05;;;;;;;;;;;;;;;7.76;78.11;97864.00;5004225;28;19934;-75
2023/11/19 01:27:53;;;;;;;;;;;;;;;7.77;77.67;97858.31;5010077;28;19925;-75
2023/11/19 01:30:43;;;;;;;;;;;;;;;7.69;77.84;97853.56;4995395;28;20008;-75
2023/11/19 01:33:31;;;;;;;;;;;;;;;7.81;77.51;97850.41;5008781;28;19925;-75
2023/11/19 01:36:20;;;;;;;;;;;;;;;7.75;77.69;97852.41;5013158;28;19925;-74
2023/11/19 01:39:08;;;;;;;;;;;;;;;7.92;77.18;97853.75;5008848;28;20415;-74
2023/11/19 01:41:56;;;;;;;;;;;;;;;7.94;77.15;97849.69;5011066;28;20390;-75
2023/11/19 01:44:54;;;;;;;;;;;;;;;7.99;77.01;97841.47;4997938;28;20030;-75
2023/11/19 01:47:42;;;;;;;;;;;;;;;7.97;77.28;97835.53;5005152;28;19929;-75
2023/11/19 01:50:31;;;;;;;;;;;;;;;7.92;77.27;97829.41;5010274;28;19925;-74
2023/11/19 01:53:20;;;;;;;;;;;;;;;7.77;77.92;97815.03;5013871;28;19930;-74
2023/11/19 01:56:09;;;;;;;;;;;;;;;7.85;77.71;97803.56;5008718;28;20367;-74
2023/11/19 01:58:57;;;;;;;;;;;;;;;7.89;77.86;97790.25;4994766;28;19972;-74
2023/11/19 02:01:45;;;;;;;;;;;;;;;7.85;78.02;97776.50;5007221;28;19940;-74
2023/11/19 02:04:34;;;;;;;;;;;;;;;7.94;77.56;97773.13;5007160;28;19933;-74
2023/11/19 02:07:22;;;;;;;;;;;;;;;7.57;78.68;97775.63;5012082;28;19929;-74
2023/11/19 02:10:14;;;;;;;;;;;;;;;7.20;81.05;97775.66;5002744;28;19925;-74
2023/11/19 02:13:04;;;;;;;;;;;;;;;7.35;80.50;97778.94;5019068;28;20475;-74
2023/11/19 02:15:54;;;;;;;;;;;;;;;7.43;80.08;97773.97;5013009;28;20329;-74
2023/11/19 02:18:42;;;;;;;;;;;;;;;7.61;79.46;97767.69;5010633;28;20380;-74
2023/11/19 02:21:30;;;;;;;;;;;;;;;7.59;79.56;97773.41;4998361;28;20051;-74
2023/11/19 02:24:19;;;;;;;;;;;;;;;7.70;79.00;97774.06;5009009;28;20371;-75
2023/11/19 02:27:09;;;;;;;;;;;;;;;7.81;78.80;97786.31;5012073;28;19929;-74
2023/11/19 02:29:59;;;;;;;;;;;;;;;7.87;78.51;97784.31;5011953;28;19975;-74
2023/11/19 02:32:48;;;;;;;;;;;;;;;7.88;78.74;97775.94;4995366;28;19932;-74
2023/11/19 02:35:36;;;;;;;;;;;;;;;7.93;78.31;97779.63;5012368;28;20011;-74
2023/11/19 02:38:25;;;;;;;;;;;;;;;7.92;78.69;97770.69;5012783;28;19933;-75
2023/11/19 02:41:14;;;;;;;;;;;;;;;7.84;78.75;97763.28;5006678;28;19936;-74
2023/11/19 02:44:03;;;;;;;;;;;;;;;7.92;79.05;97772.59;5012984;28;19925;-75
2023/11/19 02:46:52;;;;;;;;;;;;;;;7.94;79.14;97778.53;5010126;28;19930;-73
2023/11/19 02:49:40;;;;;;;;;;;;;;;7.82;79.92;97773.59;5008243;28;19937;-75
2023/11/19 02:52:28;;;;;;;;;;;;;;;7.99;79.25;97764.91;5010426;28;20494;-74
2023/11/19 02:55:17;;;;;;;;;;;;;;;8.07;78.78;97778.56;4996908;28;19929;-74
2023/11/19 02:58:19;;;;;;;;;;;;;;;7.88;79.24;97762.41;5011092;28;19930;-74
2023/11/19 03:01:12;;;;;;;;;;;;;;;7.67;80.16;97760.31;5005352;28;19925;-74
2023/11/19 03:04:02;;;;;;;;;;;;;;;8.02;79.33;97767.03;4993931;28;20399;-74
2023/11/19 03:06:53;;;;;;;;;;;;;;;7.49;80.43;97743.03;5009972;28;19995;-74
2023/11/19 03:09:41;;;;;;;;;;;;;;;6.86;83.79;97746.13;5012024;28;19929;-74
2023/11/19 03:12:29;;;;;;;;;;;;;;;6.91;85.07;97744.16;4995753;28;19936;-74
2023/11/19 03:15:19;;;;;;;;;;;;;;;7.16;83.57;97753.00;5009927;28;20295;-74
2023/11/19 03:18:07;;;;;;;;;;;;;;;7.47;82.54;97756.06;5007822;28;19925;-74
2023/11/19 03:20:58;;;;;;;;;;;;;;;7.28;82.37;97743.34;5008859;28;20307;-74
2023/11/19 03:23:46;;;;;;;;;;;;;;;7.63;81.46;97735.78;5007168;28;19968;-74
2023/11/19 03:26:34;;;;;;;;;;;;;;;7.70;81.20;97725.38;5007727;28;19925;-74
2023/11/19 03:29:23;;;;;;;;;;;;;;;7.85;80.64;97725.13;5008026;28;19933;-74
2023/11/19 03:32:12;;;;;;;;;;;;;;;7.68;81.73;97722.19;5001404;28;20031;-75
2023/11/19 03:35:00;;;;;;;;;;;;;;;7.92;80.23;97732.84;5005529;28;20315;-74
2023/11/19 03:37:51;;;;;;;;;;;;;;;7.78;81.00;97723.91;5009759;28;19936;-75
2023/11/19 03:40:40;;;;;;;;;;;;;;;7.84;80.57;97696.47;5008563;28;19926;-74
2023/11/19 03:43:28;;;;;;;;;;;;;;;7.82;81.38;97671.59;5010557;28;20391;-74
2023/11/19 03:46:17;;;;;;;;;;;;;;;7.88;81.04;97670.44;5011543;28;20288;-74
2023/11/19 03:49:06;;;;;;;;;;;;;;;7.79;81.36;97647.09;5011270;28;19951;-74
2023/11/19 03:51:55;;;;;;;;;;;;;;;7.92;80.08;97615.72;5004801;28;19926;-74
2023/11/19 03:54:45;;;;;;;;;;;;;;;7.93;80.40;97590.28;4993676;28;19965;-74
2023/11/19 03:57:33;;;;;;;;;;;;;;;7.68;81.03;97592.41;5001522;28;19945;-74
2023/11/19 04:00:21;;;;;;;;;;;;;;;7.73;81.70;97592.31;4990954;28;19925;-74
2023/11/19 04:03:09;;;;;;;;;;;;;;;7.75;81.82;97606.31;4996261;28;19925;-74
2023/11/19 04:05:59;;;;;;;;;;;;;;;7.97;80.94;97611.00;4993082;28;19925;-74
2023/11/19 04:08:47;;;;;;;;;;;;;;;8.09;80.07;97630.25;5007209;28;19933;-75
2023/11/19 04:11:38;;;;;;;;;;;;;;;7.95;80.94;97632.16;5007637;28;20012;-74
2023/11/19 04:14:27;;;;;;;;;;;;;;;7.87;82.03;97624.75;5007326;28;19932;-74
2023/11/19 04:17:15;;;;;;;;;;;;;;;7.94;81.54;97637.88;5010195;28;20264;-74
2023/11/19 04:20:04;;;;;;;;;;;;;;;8.18;80.61;97654.69;4994085;28;19925;-74
2023/11/19 04:22:53;;;;;;;;;;;;;;;8.11;81.35;97651.59;5007249;28;19937;-74
2023/11/19 04:25:42;;;;;;;;;;;;;;;8.11;81.41;97657.00;5007606;28;19933;-74
2023/11/19 04:28:31;;;;;;;;;;;;;;;8.35;80.74;97662.19;4984886;28;19932;-74
2023/11/19 04:31:19;;;;;;;;;;;;;;;8.21;80.97;97659.50;5010984;28;20391;-75
2023/11/19 04:34:07;;;;;;;;;;;;;;;8.34;80.65;97660.59;5010219;28;20283;-74
2023/11/19 04:36:56;;;;;;;;;;;;;;;8.37;80.51;97665.44;5011006;28;19925;-74
2023/11/19 04:39:44;;;;;;;;;;;;;;;8.45;80.45;97653.09;5009694;28;20445;-74
2023/11/19 04:42:33;;;;;;;;;;;;;;;8.46;80.24;97663.63;5006214;28;19933;-74
2023/11/19 04:45:22;;;;;;;;;;;;;;;8.19;81.82;97666.31;5008333;28;19925;-74
2023/11/19 04:48:10;;;;;;;;;;;;;;;8.34;81.51;97663.31;4993916;28;20024;-74
2023/11/19 04:50:58;;;;;;;;;;;;;;;8.46;80.93;97652.78;5008743;28;20426;-74
2023/11/19 04:53:46;;;;;;;;;;;;;;;8.55;80.82;97658.28;5010443;28;19940;-75
2023/11/19 04:56:35;;;;;;;;;;;;;;;8.60;80.36;97653.56;5006326;28;19968;-74
2023/11/19 04:59:23;;;;;;;;;;;;;;;8.69;79.93;97650.16;5006846;28;19932;-74
2023/11/19 05:02:12;;;;;;;;;;;;;;;8.69;79.83;97656.38;5009387;28;19933;-74
2023/11/19 05:05:00;;;;;;;;;;;;;;;8.55;80.59;97650.97;5010009;28;20013;-74
2023/11/19 05:07:48;;;;;;;;;;;;;;;8.73;79.97;97653.81;5009712;28;20015;-74
2023/11/19 05:10:37;;;;;;;;;;;;;;;8.72;79.81;97650.31;5008492;28;19929;-75
2023/11/19 05:13:25;;;;;;;;;;;;;;;8.83;79.52;97638.16;4992934;28;19932;-74
2023/11/19 05:16:15;;;;;;;;;;;;;;;8.80;79.97;97649.59;5006876;28;19929;-75
2023/11/19 05:19:04;;;;;;;;;;;;;;;8.85;79.46;97644.06;5007501;28;20358;-75
2023/11/19 05:21:52;;;;;;;;;;;;;;;9.03;79.04;97636.06;5005709;28;19925;-74
2023/11/19 05:24:40;;;;;;;;;;;;;;;9.11;78.77;97638.06;5010701;28;19933;-74
2023/11/19 05:27:29;;;;;;;;;;;;;;;9.19;78.65;97631.88;5004837;28;19932;-75
2023/11/19 05:30:17;;;;;;;;;;;;;;;9.20;78.25;97630.75;5008824;28;19937;-75
2023/11/19 05:33:05;;;;;;;;;;;;;;;9.27;78.12;97628.44;5010902;28;19926;-76
2023/11/19 05:35:54;;;;;;;;;;;;;;;9.31;77.85;97631.31;5007719;28;20123;-75
2023/11/19 05:38:42;;;;;;;;;;;;;;;9.36;77.94;97623.06;5004239;28;19926;-75
2023/11/19 05:41:31;;;;;;;;;;;;;;;9.44;77.75;97619.59;5010415;28;19926;-74
2023/11/19 05:44:19;;;;;;;;;;;;;;;9.44;77.70;97614.97;5007632;28;20302;-74
2023/11/19 05:47:09;;;;;;;;;;;;;;;9.42;78.12;97610.97;5005768;28;20023;-74
2023/11/19 05:49:57;;;;;;;;;;;;;;;9.38;78.30;97618.94;5008341;28;19952;-74
2023/11/19 05:52:46;;;;;;;;;;;;;;;9.34;78.39;97609.03;4990905;28;19936;-74
2023/11/19 05:55:35;;;;;;;;;;;;;;;9.37;78.53;97601.03;5006021;28;20323;-75
2023/11/19 05:58:24;;;;;;;;;;;;;;;9.41;78.43;97599.31;5007930;28;19925;-74
2023/11/19 06:01:14;;;;;;;;;;;;;;;9.42;78.59;97595.50;5011520;28;19925;-74
2023/11/19 06:04:04;;;;;;;;;;;;;;;9.49;78.52;97599.69;5012756;28;19925;-74
2023/11/19 06:06:54;;;;;;;;;;;;;;;9.37;79.06;97598.34;5013340;28;19933;-74
2023/11/19 06:09:44;;;;;;;;;;;;;;;9.44;79.01;97604.13;5009143;28;19932;-74
2023/11/19 06:12:33;;;;;;;;;;;;;;;9.51;79.04;97608.31;5009384;28;19932;-74
2023/11/19 06:15:21;;;;;;;;;;;;;;;9.39;79.38;97606.97;5010847;28;19925;-74
2023/11/19 06:18:11;;;;;;;;;;;;;;;9.42;79.44;97608.25;5011048;28;19926;-74
2023/11/19 06:20:59;;;;;;;;;;;;;;;9.45;79.50;97613.06;5011114;28;20295;-73
2023/11/19 06:23:47;;;;;;;;;;;;;;;9.43;79.93;97613.38;5009404;28;20379;-74
2023/11/19 06:26:36;;;;;;;;;;;;;;;9.52;79.81;97615.31;5012411;28;19933;-74
2023/11/19 06:29:24;;;;;;;;;;;;;;;9.47;80.60;97613.53;5012650;28;20423;-73
2023/11/19 06:32:12;;;;;;;;;;;;;;;9.39;81.28;97612.41;5007196;28;19964;-74
2023/11/19 06:35:01;;;;;;;;;;;;;;;9.55;80.52;97612.81;5012309;28;19933;-74
2023/11/19 06:37:49;;;;;;;;;;;;;;;9.58;80.23;97614.88;5010103;28;20341;-75
2023/11/19 06:40:37;;;;;;;;;;;;;;;9.51;80.92;97613.72;5007176;28;20311;-74
2023/11/19 06:43:27;;;;;;;;;;;;;;;9.63;80.20;97605.81;5006312;28;20056;-74
2023/11/19 06:46:28;;;;;;;;;;;;;;;9.67;80.29;97606.78;5005315;28;19948;-75
2023/11/19 06:49:16;;;;;;;;;;;;;;;9.72;80.39;97609.38;5007837;28;19933;-75
2023/11/19 06:52:05;;;;;;;;;;;;;;;9.73;80.51;97607.44;5009491;28;20435;-74
2023/11/19 06:54:53;;;;;;;;;;;;;;;9.78;80.59;97612.75;5003101;28;20376;-74
2023/11/19 06:57:54;;;;;;;;;;;;;;;9.80;80.21;97602.38;5010126;28;20307;-74
2023/11/19 07:00:44;;;;;;;;;;;;;;;9.88;80.09;97601.59;5009555;28;20126;-74
2023/11/19 07:03:32;;;;;;;;;;;;;;;9.95;79.82;97618.22;5008645;28;20371;-75
2023/11/19 07:06:20;;;;;;;;;;;;;;;9.90;80.07;97610.22;5004454;28;20024;-75
2023/11/19 07:09:22;;;;;;;;;;;;;;;10.02;80.09;97618.59;5008641;28;19925;-74
2023/11/19 07:12:10;;;;;;;;;;;;;;;9.74;81.72;97617.97;5009306;28;19987;-74
2023/11/19 07:15:00;;;;;;;;;;;;;;;9.93;80.41;97612.31;5007922;28;19937;-73
2023/11/19 07:17:49;;;;;;;;;;;;;;;9.97;80.56;97611.38;5007352;28;19929;-73
2023/11/19 07:20:49;;;;;;;;;;;;;;;10.01;80.69;97614.25;5010016;28;20032;-72
2023/11/19 07:23:37;;;;;;;;;;;;;;;10.09;80.67;97610.78;5004485;28;19971;-73
2023/11/19 07:26:25;;;;;;;;;;;;;;;10.11;80.35;97615.88;5004130;28;19929;-73
2023/11/19 07:29:13;;;;;;;;;;;;;;;10.04;80.79;97615.53;5004330;28;19937;-73
2023/11/19 07:32:15;;;;;;;;;;;;;;;10.14;80.30;97632.34;5006794;28;20112;-73
2023/11/19 07:35:07;;;;;;;;;;;;;;;10.09;81.11;97629.78;5003522;28;21762;-73
2023/11/19 07:37:55;;;;;;;;;;;;;;;10.17;80.71;97628.19;5007072;28;19941;-73
2023/11/19 07:40:43;;;;;;;;;;;;;;;10.20;80.82;97627.56;5006468;28;20290;-73
2023/11/19 07:43:46;;;;;;;;;;;;;;;10.26;81.27;97629.06;5006823;28;19974;-73
2023/11/19 07:46:34;;;;;;;;;;;;;;;10.26;81.13;97628.25;5001651;28;19929;-74
2023/11/19 07:49:22;;;;;;;;;;;;;;;10.34;81.16;97631.00;5005541;28;19929;-73
2023/11/19 07:52:11;;;;;;;;;;;;;;;10.29;81.93;97625.72;5006755;28;19936;-73
2023/11/19 07:55:03;;;;;;;;;;;;;;;10.42;81.39;97629.41;5002577;28;19925;-73
2023/11/19 07:57:51;;;;;;;;;;;;;;;10.46;80.93;97628.47;4990856;28;19929;-73
2023/11/19 08:00:40;;;;;;;;;;;;;;;10.54;80.55;97631.50;5001559;28;19940;-73
2023/11/19 08:03:29;;;;;;;;;;;;;;;10.35;81.88;97638.03;5006624;28;20516;-73
2023/11/19 08:06:17;;;;;;;;;;;;;;;10.36;82.74;97634.19;5005585;28;20031;-73
2023/11/19 08:09:11;;;;;;;;;;;;;;;10.42;81.35;97635.63;5006653;28;19975;-73
2023/11/19 08:11:59;;;;;;;;;;;;;;;10.43;80.84;97634.50;4986894;28;19981;-73
2023/11/19 08:14:46;;;;;;;;;;;;;;;10.42;81.48;97646.50;5002703;28;20031;-73
2023/11/19 08:17:34;;;;;;;;;;;;;;;10.34;83.20;97641.06;4991329;28;19941;-73
2023/11/19 08:20:23;;;;;;;;;;;;;;;10.42;82.70;97632.91;5010151;28;20398;-72
2023/11/19 08:23:11;;;;;;;;;;;;;;;10.43;82.27;97626.34;5004050;28;19960;-73
2023/11/19 08:26:01;;;;;;;;;;;;;;;10.37;82.89;97630.34;4994134;28;20007;-73
2023/11/19 08:28:49;;;;;;;;;;;;;;;10.52;84.35;97620.16;5009463;28;20339;-73
2023/11/19 08:31:37;;;;;;;;;;;;;;;10.62;84.67;97615.22;5007362;28;19945;-73
2023/11/19 08:34:25;;;;;;;;;;;;;;;10.65;85.59;97620.03;5007382;28;20009;-73
2023/11/19 08:37:15;;;;;;;;;;;;;;;10.74;86.10;97620.81;5005918;28;19925;-73
2023/11/19 08:40:04;;;;;;;;;;;;;;;10.82;86.25;97613.78;5006733;28;19933;-73
2023/11/19 08:42:53;;;;;;;;;;;;;;;10.85;86.70;97624.00;5008461;28;19987;-73
2023/11/19 08:45:41;;;;;;;;;;;;;;;10.93;86.94;97625.13;5010263;28;19936;-73
2023/11/19 08:48:30;;;;;;;;;;;;;;;11.02;86.73;97629.47;5010246;28;19926;-73
2023/11/19 08:51:19;;;;;;;;;;;;;;;11.02;86.82;97624.03;4996959;28;19936;-73
2023/11/19 08:54:07;;;;;;;;;;;;;;;11.11;86.59;97615.03;5008970;28;20038;-73
2023/11/19 08:56:55;;;;;;;;;;;;;;;11.21;86.46;97612.78;5005014;28;19926;-73
2023/11/19 08:59:45;;;;;;;;;;;;;;;11.31;85.99;97619.81;5007522;28;20047;-72
2023/11/19 09:02:34;;;;;;;;;;;;;;;11.36;86.10;97618.84;5006431;28;20029;-72
2023/11/19 09:05:22;;;;;;;;;;;;;;;11.43;86.22;97614.50;5004242;28;19936;-72
2023/11/19 09:08:11;;;;;;;;;;;;;;;11.47;86.19;97610.03;4986518;28;19926;-73
2023/11/19 09:10:59;;;;;;;;;;;;;;;11.57;85.85;97603.44;4999587;28;20371;-73
2023/11/19 09:13:47;;;;;;;;;;;;;;;11.60;86.10;97605.50;5008781;28;19972;-73
2023/11/19 09:16:36;;;;;;;;;;;;;;;11.59;86.21;97608.53;5004216;28;20386;-73
2023/11/19 09:19:24;;;;;;;;;;;;;;;11.69;85.81;97617.16;5005943;28;19933;-72
2023/11/19 09:22:12;;;;;;;;;;;;;;;11.80;85.88;97637.44;5006157;28;19933;-73
2023/11/19 09:25:00;;;;;;;;;;;;;;;11.84;85.67;97642.28;5005670;28;21877;-73
2023/11/19 09:27:49;;;;;;;;;;;;;;;11.87;85.38;97639.69;5007244;28;19933;-72
2023/11/19 09:30:37;;;;;;;;;;;;;;;11.97;84.97;97635.81;5004697;28;19933;-73
2023/11/19 09:33:28;;;;;;;;;;;;;;;12.07;84.48;97647.13;5007174;28;19932;-73
2023/11/19 09:36:16;;;;;;;;;;;;;;;12.09;83.16;97662.34;5009608;28;19968;-73
2023/11/19 09:39:05;;;;;;;;;;;;;;;12.09;83.26;97648.72;5011100;28;19965;-73
2023/11/19 09:41:53;;;;;;;;;;;;;;;12.01;83.11;97648.44;5010140;28;19926;-73
2023/11/19 09:44:41;;;;;;;;;;;;;;;12.10;82.73;97656.59;5002275;28;19925;-74
2023/11/19 09:47:29;;;;;;;;;;;;;;;12.05;81.54;97660.28;5010575;28;20405;-73
2023/11/19 09:50:20;;;;;;;;;;;;;;;12.06;81.40;97664.59;5003564;28;19937;-74
2023/11/19 09:53:08;;;;;;;;;;;;;;;12.02;80.84;97666.38;5011892;28;19937;-73
2023/11/19 09:55:56;;;;;;;;;;;;;;;12.05;81.01;97654.03;5010446;28;19991;-74
2023/11/19 09:58:45;;;;;;;;;;;;;;;12.01;80.54;97647.66;5010223;28;19925;-73
2023/11/19 10:01:33;;;;;;;;;;;;;;;12.06;80.31;97647.47;5011188;28;20256;-73
2023/11/19 10:04:21;;;;;;;;;;;;;;;12.02;80.78;97633.69;5011510;28;19940;-73
2023/11/19 10:07:10;;;;;;;;;;;;;;;12.01;80.74;97640.28;5007497;28;19960;-73
2023/11/19 10:09:58;;;;;;;;;;;;;;;12.12;80.08;97629.03;5012532;28;20398;-73
2023/11/19 10:12:47;;;;;;;;;;;;;;;12.21;79.85;97637.94;5007362;28;20008;-74
2023/11/19 10:15:38;;;;;;;;;;;;;;;12.27;79.61;97623.00;5009801;28;19929;-73
2023/11/19 10:18:26;;;;;;;;;;;;;;;12.39;79.74;97628.53;4995806;28;19925;-74
2023/11/19 10:21:16;;;;;;;;;;;;;;;12.45;79.44;97629.94;5005528;28;20391;-74
2023/11/19 10:24:07;;;;;;;;;;;;;;;12.46;79.56;97628.00;5007813;28;20016;-74
2023/11/19 10:26:57;;;;;;;;;;;;;;;12.37;79.14;97624.56;5007207;28;19926;-74
2023/11/19 10:29:46;;;;;;;;;;;;;;;12.43;78.81;97629.50;5009750;28;19932;-74
2023/11/19 10:32:34;;;;;;;;;;;;;;;12.40;78.91;97615.72;5010436;28;19925;-75
2023/11/19 10:35:22;;;;;;;;;;;;;;;12.39;79.12;97625.03;5011760;28;20434;-74
2023/11/19 10:38:14;;;;;;;;;;;;;;;12.46;78.82;97620.63;5008484;28;19926;-73
2023/11/19 10:41:04;;;;;;;;;;;;;;;12.43;79.91;97626.75;5009987;28;20058;-74
2023/11/19 10:43:55;;;;;;;;;;;;;;;12.44;80.71;97625.63;5010196;28;20056;-74
2023/11/19 10:46:43;;;;;;;;;;;;;;;12.36;82.16;97631.94;5007076;28;19929;-74
2023/11/19 10:49:32;;;;;;;;;;;;;;;12.26;83.17;97633.13;5010015;28;19925;-74
2023/11/19 10:52:20;;;;;;;;;;;;;;;12.37;83.24;97621.84;5007200;28;20399;-74
2023/11/19 10:55:09;;;;;;;;;;;;;;;12.27;84.09;97628.47;5007316;28;19925;-74
2023/11/19 10:58:01;;;;;;;;;;;;;;;12.32;84.05;97620.91;5008426;28;19985;-74
2023/11/19 11:00:51;;;;;;;;;;;;;;;12.40;83.46;97615.72;5005254;28;19936;-74
2023/11/19 11:03:40;;;;;;;;;;;;;;;12.45;83.00;97619.03;5007469;28;20183;-74
2023/11/19 11:06:28;;;;;;;;;;;;;;;12.64;82.79;97615.09;5005201;28;20021;-74
2023/11/19 11:09:16;;;;;;;;;;;;;;;12.75;82.01;97611.63;5010360;28;19933;-74
2023/11/19 11:12:05;;;;;;;;;;;;;;;12.84;81.59;97606.13;4994229;28;19933;-74
2023/11/19 11:14:54;;;;;;;;;;;;;;;12.71;81.02;97615.34;4993051;28;19929;-74
2023/11/19 11:17:43;;;;;;;;;;;;;;;12.76;80.57;97612.44;5008769;28;19965;-74
2023/11/19 11:20:33;;;;;;;;;;;;;;;12.79;79.58;97617.22;5008225;28;20372;-75
2023/11/19 11:23:39;;;;;;;;;;;;;;;12.71;78.76;97604.44;5005738;28;19926;-74
2023/11/19 11:26:36;;;;;;;;;;;;;;;12.78;77.91;97605.53;5007737;28;20048;-74
2023/11/19 11:29:27;;;;;;;;;;;;;;;12.78;76.08;97597.34;5009850;28;20444;-74
2023/11/19 11:32:21;;;;;;;;;;;;;;;12.71;75.58;97596.28;5009364;28;19925;-74
2023/11/19 11:35:14;;;;;;;;;;;;;;;12.75;76.05;97589.03;5009082;28;19925;-74
2023/11/19 11:38:03;;;;;;;;;;;;;;;12.72;75.81;97579.56;5006487;28;19925;-74
2023/11/19 11:41:10;;;;;;;;;;;;;;;12.81;75.45;97588.50;5007665;28;20676;-75
2023/11/19 11:44:00;;;;;;;;;;;;;;;12.90;75.29;97585.69;5009018;28;19936;-74
2023/11/19 11:46:55;;;;;;;;;;;;;;;13.11;74.51;97582.94;5008224;28;19925;-74
2023/11/19 11:49:44;;;;;;;;;;;;;;;13.16;73.98;97577.28;5008070;28;19937;-74
2023/11/19 11:52:32;;;;;;;;;;;;;;;13.22;73.81;97580.63;5007262;28;20406;-74
2023/11/19 11:55:20;;;;;;;;;;;;;;;13.23;73.37;97583.00;5005724;28;19926;-73
2023/11/19 11:58:08;;;;;;;;;;;;;;;13.26;72.96;97585.06;5007369;28;19932;-73
2023/11/19 12:00:57;;;;;;;;;;;;;;;13.22;73.00;97575.97;5007189;28;19926;-73
2023/11/19 12:03:46;;;;;;;;;;;;;;;13.19;72.38;97582.03;4992118;28;20008;-74
2023/11/19 12:06:36;;;;;;;;;;;;;;;13.19;71.71;97565.69;5005171;28;19926;-74
2023/11/19 12:09:24;;;;;;;;;;;;;;;13.21;71.22;97557.16;5005359;28;19929;-74
2023/11/19 12:12:19;;;;;;;;;;;;;;;13.17;71.92;97561.72;5009772;28;20435;-75
2023/11/19 12:15:09;;;;;;;;;;;;;;;13.16;71.12;97560.13;5006398;28;19925;-74
2023/11/19 12:17:58;;;;;;;;;;;;;;;13.18;71.94;97557.84;5004191;28;19934;-74
2023/11/19 12:20:46;;;;;;;;;;;;;;;13.16;71.75;97551.94;5003886;28;20390;-74
2023/11/19 12:23:36;;;;;;;;;;;;;;;13.14;71.15;97551.47;5004915;28;19926;-74
2023/11/19 12:26:37;;;;;;;;;;;;;;;13.08;70.80;97537.25;5010408;28;19933;-74
2023/11/19 12:29:25;;;;;;;;;;;;;;;13.05;71.27;97549.63;5005982;28;19936;-74
2023/11/19 12:32:13;;;;;;;;;;;;;;;13.10;71.89;97541.25;5008812;28;19925;-74
2023/11/19 12:35:02;;;;;;;;;;;;;;;13.23;71.48;97544.03;5007643;28;19932;-73
2023/11/19 12:37:52;;;;;;;;;;;;;;;13.28;70.38;97530.97;5006669;28;19933;-73
2023/11/19 12:40:41;;;;;;;;;;;;;;;13.47;70.78;97538.59;5008372;28;19930;-73
2023/11/19 12:43:30;;;;;;;;;;;;;;;13.45;69.98;97532.69;5007733;28;19967;-73
2023/11/19 12:46:19;;;;;;;;;;;;;;;13.53;69.10;97536.44;5008120;28;20375;-72
2023/11/19 12:49:12;;;;;;;;;;;;;;;13.54;68.72;97522.47;5003989;28;20470;-72
2023/11/19 12:52:00;;;;;;;;;;;;;;;13.43;67.81;97561.47;5007276;28;19937;-72
2023/11/19 12:54:48;;;;;;;;;;;;;;;13.45;68.47;97543.59;5005339;28;19929;-72
2023/11/19 12:57:39;;;;;;;;;;;;;;;13.39;66.43;97536.78;5007810;28;19925;-72
2023/11/19 13:00:27;;;;;;;;;;;;;;;13.38;67.21;97529.75;5007850;28;19926;-72
2023/11/19 13:03:15;;;;;;;;;;;;;;;13.27;66.78;97544.94;4993879;28;19925;-72
2023/11/19 13:06:05;;;;;;;;;;;;;;;13.40;65.88;97538.38;5007033;28;19933;-72
2023/11/19 13:08:54;;;;;;;;;;;;;;;13.48;65.25;97540.22;4993675;28;19933;-73
2023/11/19 13:11:45;;;;;;;;;;;;;;;13.51;65.02;97531.34;5010227;28;19925;-73
2023/11/19 13:14:45;;;;;;;;;;;;;;;13.59;64.62;97527.72;5010389;28;19932;-74
2023/11/19 13:17:33;;;;;;;;;;;;;;;13.55;64.95;97536.91;5003294;28;20268;-75
2023/11/19 13:20:22;;;;;;;;;;;;;;;13.60;62.85;97531.25;5006614;28;20402;-74
2023/11/19 13:23:11;;;;;;;;;;;;;;;13.59;63.33;97530.44;5005024;28;20015;-74
2023/11/19 13:25:59;;;;;;;;;;;;;;;13.55;63.13;97528.72;5000258;28;19932;-74
2023/11/19 13:28:47;;;;;;;;;;;;;;;13.59;62.79;97521.47;5006507;28;19934;-74
2023/11/19 13:31:36;;;;;;;;;;;;;;;13.60;63.08;97526.56;5007125;28;19991;-73
2023/11/19 13:34:25;;;;;;;;;;;;;;;13.57;62.46;97527.25;5009851;28;20438;-74
2023/11/19 13:37:13;;;;;;;;;;;;;;;13.59;63.09;97514.06;4993570;28;20028;-74
2023/11/19 13:40:01;;;;;;;;;;;;;;;13.66;63.21;97507.25;5003574;28;20394;-73
2023/11/19 13:42:49;;;;;;;;;;;;;;;13.72;63.91;97505.88;5002867;28;20682;-74
2023/11/19 13:45:38;;;;;;;;;;;;;;;13.75;63.72;97499.75;5006144;28;19937;-73
2023/11/19 13:48:29;;;;;;;;;;;;;;;13.75;63.12;97494.28;5004922;28;20102;-74
2023/11/19 13:51:17;;;;;;;;;;;;;;;13.81;64.05;97495.63;5004986;28;19947;-74
2023/11/19 13:54:05;;;;;;;;;;;;;;;13.91;64.13;97497.13;5005516;28;19933;-74
2023/11/19 13:56:55;;;;;;;;;;;;;;;13.96;63.44;97496.88;5001729;28;19941;-74
2023/11/19 13:59:44;;;;;;;;;;;;;;;13.88;64.13;97502.09;5006927;28;19925;-74
2023/11/19 14:02:32;;;;;;;;;;;;;;;13.71;64.25;97496.09;5003550;28;19925;-75
2023/11/19 14:05:23;;;;;;;;;;;;;;;13.75;64.35;97500.53;5003155;28;19930;-74
2023/11/19 14:08:14;;;;;;;;;;;;;;;13.79;64.72;97511.56;5002109;28;20391;-73
2023/11/19 14:11:10;;;;;;;;;;;;;;;13.86;65.06;97511.78;5003693;28;19936;-74
2023/11/19 14:13:58;;;;;;;;;;;;;;;13.83;63.87;97521.44;5008222;28;19929;-74
2023/11/19 14:16:47;;;;;;;;;;;;;;;13.77;63.49;97513.84;4999051;28;19929;-74
2023/11/19 14:19:35;;;;;;;;;;;;;;;13.72;63.73;97500.41;5004708;28;19936;-74
2023/11/19 14:22:25;;;;;;;;;;;;;;;13.68;64.18;97511.22;5008307;28;19925;-73
2023/11/19 14:25:13;;;;;;;;;;;;;;;13.65;62.95;97514.63;5006928;28;20414;-74
2023/11/19 14:28:01;;;;;;;;;;;;;;;13.66;63.54;97523.63;5012060;28;20056;-74
2023/11/19 14:30:56;;;;;;;;;;;;;;;13.61;63.22;97530.88;5008782;28;19925;-74
2023/11/19 14:33:45;;;;;;;;;;;;;;;13.51;62.56;97525.09;5008010;28;19925;-74
2023/11/19 14:36:33;;;;;;;;;;;;;;;13.46;62.33;97515.19;5007515;28;19933;-74
2023/11/19 14:39:22;;;;;;;;;;;;;;;13.48;62.26;97510.19;5009657;28;19932;-74
2023/11/19 14:42:10;;;;;;;;;;;;;;;13.52;63.10;97511.09;5006172;28;20497;-74
2023/11/19 14:44:58;;;;;;;;;;;;;;;13.45;62.59;97497.22;5007533;28;19975;-74
2023/11/19 14:47:46;;;;;;;;;;;;;;;13.42;62.80;97505.28;5006158;28;20635;-74